sensor_id;sensor_type;location;lat;lon;timestamp;P1;P2;P0
23240;PMS7003;11789;53.482;9.862;2024-01-11T00:00:48;60.75;46.25;23.75
23240;PMS7003;11789;53.482;9.862;2024-01-11T00:03:13;65.00;48.00;24.00
23240;PMS7003;11789;53.482;9.862;2024-01-11T00:05:39;64.00;47.25;23.75
23240;PMS7003;11789;53.482;9.862;2024-01-11T00:08:04;54.75;44.50;24.00
23240;PMS7003;11789;53.482;9.862;2024-01-11T00:10:30;58.25;46.50;22.25
23240;PMS7003;11789;53.482;9.862;2024-01-11T00:12:55;57.75;44.25;21.25
23240;PMS7003;11789;53.482;9.862;2024-01-11T00:15:21;43.75;37.50;17.00
23240;PMS7003;11789;53.482;9.862;2024-01-11T00:17:46;59.75;37.75;17.50
23240;PMS7003;11789;53.482;9.862;2024-01-11T00:20:12;60.50;43.75;18.50
23240;PMS7003;11789;53.482;9.862;2024-01-11T00:22:37;46.50;42.25;20.75
23240;PMS7003;11789;53.482;9.862;2024-01-11T00:25:03;47.25;42.75;19.25
23240;PMS7003;11789;53.482;9.862;2024-01-11T00:27:29;50.75;43.00;20.75
23240;PMS7003;11789;53.482;9.862;2024-01-11T00:29:54;61.75;45.00;20.75
23240;PMS7003;11789;53.482;9.862;2024-01-11T00:32:20;57.50;45.00;23.25
23240;PMS7003;11789;53.482;9.862;2024-01-11T00:34:46;58.25;47.75;24.25
23240;PMS7003;11789;53.482;9.862;2024-01-11T00:37:12;61.00;47.25;24.00
23240;PMS7003;11789;53.482;9.862;2024-01-11T00:39:37;58.50;47.25;25.25
23240;PMS7003;11789;53.482;9.862;2024-01-11T00:42:03;50.00;42.75;21.25
23240;PMS7003;11789;53.482;9.862;2024-01-11T00:44:29;64.25;50.00;24.25
23240;PMS7003;11789;53.482;9.862;2024-01-11T00:46:54;59.00;43.50;23.00
23240;PMS7003;11789;53.482;9.862;2024-01-11T00:49:20;54.00;41.25;22.00
23240;PMS7003;11789;53.482;9.862;2024-01-11T00:51:46;56.50;41.00;19.50
23240;PMS7003;11789;53.482;9.862;2024-01-11T00:54:12;48.75;38.50;18.25
23240;PMS7003;11789;53.482;9.862;2024-01-11T00:56:40;51.75;38.00;21.50
23240;PMS7003;11789;53.482;9.862;2024-01-11T00:59:06;66.25;45.00;18.50
23240;PMS7003;11789;53.482;9.862;2024-01-11T01:01:31;60.50;44.75;21.25
23240;PMS7003;11789;53.482;9.862;2024-01-11T01:03:57;51.00;43.50;21.75
23240;PMS7003;11789;53.482;9.862;2024-01-11T01:06:23;51.75;43.00;21.75
23240;PMS7003;11789;53.482;9.862;2024-01-11T01:08:48;63.50;42.50;23.00
23240;PMS7003;11789;53.482;9.862;2024-01-11T01:11:14;56.25;44.50;23.50
23240;PMS7003;11789;53.482;9.862;2024-01-11T01:13:39;56.50;44.50;23.25
23240;PMS7003;11789;53.482;9.862;2024-01-11T01:16:05;54.00;46.00;22.75
23240;PMS7003;11789;53.482;9.862;2024-01-11T01:18:30;54.75;41.75;20.25
23240;PMS7003;11789;53.482;9.862;2024-01-11T01:20:56;66.50;46.75;20.50
23240;PMS7003;11789;53.482;9.862;2024-01-11T01:23:21;55.50;44.00;20.00
23240;PMS7003;11789;53.482;9.862;2024-01-11T01:25:47;52.25;42.00;17.00
23240;PMS7003;11789;53.482;9.862;2024-01-11T01:28:12;47.75;43.00;19.75
23240;PMS7003;11789;53.482;9.862;2024-01-11T01:30:37;53.50;42.00;19.25
23240;PMS7003;11789;53.482;9.862;2024-01-11T01:33:03;47.50;42.25;18.00
23240;PMS7003;11789;53.482;9.862;2024-01-11T01:35:29;52.50;42.00;20.25
23240;PMS7003;11789;53.482;9.862;2024-01-11T01:37:54;51.00;38.00;17.00
23240;PMS7003;11789;53.482;9.862;2024-01-11T01:40:20;54.75;43.50;18.25
23240;PMS7003;11789;53.482;9.862;2024-01-11T01:42:46;56.00;45.00;21.75
23240;PMS7003;11789;53.482;9.862;2024-01-11T01:45:12;52.00;44.00;20.25
23240;PMS7003;11789;53.482;9.862;2024-01-11T01:47:38;52.25;42.00;19.50
23240;PMS7003;11789;53.482;9.862;2024-01-11T01:50:06;45.50;40.25;19.50
23240;PMS7003;11789;53.482;9.862;2024-01-11T01:52:33;49.00;40.50;20.25
23240;PMS7003;11789;53.482;9.862;2024-01-11T01:54:59;55.50;44.75;20.75
23240;PMS7003;11789;53.482;9.862;2024-01-11T01:57:27;47.75;37.75;17.75
23240;PMS7003;11789;53.482;9.862;2024-01-11T01:59:55;49.75;40.50;19.25
23240;PMS7003;11789;53.482;9.862;2024-01-11T02:02:21;46.75;40.00;19.00
23240;PMS7003;11789;53.482;9.862;2024-01-11T02:04:47;39.00;33.75;17.75
23240;PMS7003;11789;53.482;9.862;2024-01-11T02:07:13;47.25;43.25;20.00
23240;PMS7003;11789;53.482;9.862;2024-01-11T02:09:39;42.00;40.25;19.50
23240;PMS7003;11789;53.482;9.862;2024-01-11T02:12:05;47.50;39.25;17.00
23240;PMS7003;11789;53.482;9.862;2024-01-11T02:14:31;49.75;34.75;16.75
23240;PMS7003;11789;53.482;9.862;2024-01-11T02:16:57;50.75;41.25;16.75
23240;PMS7003;11789;53.482;9.862;2024-01-11T02:19:22;44.00;38.50;18.00
23240;PMS7003;11789;53.482;9.862;2024-01-11T02:21:49;43.75;35.75;17.75
23240;PMS7003;11789;53.482;9.862;2024-01-11T02:24:18;43.00;35.00;18.50
23240;PMS7003;11789;53.482;9.862;2024-01-11T02:26:59;41.75;36.25;21.00
23240;PMS7003;11789;53.482;9.862;2024-01-11T02:29:30;36.50;31.00;16.00
23240;PMS7003;11789;53.482;9.862;2024-01-11T02:31:56;47.00;36.00;20.00
23240;PMS7003;11789;53.482;9.862;2024-01-11T02:34:26;41.25;37.75;18.00
23240;PMS7003;11789;53.482;9.862;2024-01-11T02:36:52;51.00;32.25;16.50
23240;PMS7003;11789;53.482;9.862;2024-01-11T02:39:18;46.25;38.25;20.00
23240;PMS7003;11789;53.482;9.862;2024-01-11T02:41:45;46.25;37.50;17.00
23240;PMS7003;11789;53.482;9.862;2024-01-11T02:44:10;47.75;39.50;15.25
23240;PMS7003;11789;53.482;9.862;2024-01-11T02:46:36;38.75;30.50;10.00
23240;PMS7003;11789;53.482;9.862;2024-01-11T02:49:01;31.75;19.75;7.00
23240;PMS7003;11789;53.482;9.862;2024-01-11T02:51:27;43.75;33.00;18.00
23240;PMS7003;11789;53.482;9.862;2024-01-11T02:53:52;46.50;35.00;17.25
23240;PMS7003;11789;53.482;9.862;2024-01-11T02:56:18;45.25;36.50;16.25
23240;PMS7003;11789;53.482;9.862;2024-01-11T02:58:43;46.50;34.50;19.00
23240;PMS7003;11789;53.482;9.862;2024-01-11T03:01:09;52.00;37.00;15.25
23240;PMS7003;11789;53.482;9.862;2024-01-11T03:03:34;36.50;29.75;12.00
23240;PMS7003;11789;53.482;9.862;2024-01-11T03:06:00;41.75;37.00;17.75
23240;PMS7003;11789;53.482;9.862;2024-01-11T03:08:26;57.50;39.25;20.25
23240;PMS7003;11789;53.482;9.862;2024-01-11T03:10:52;52.00;40.50;15.00
23240;PMS7003;11789;53.482;9.862;2024-01-11T03:13:17;43.75;31.50;13.25
23240;PMS7003;11789;53.482;9.862;2024-01-11T03:15:43;48.00;42.75;17.25
23240;PMS7003;11789;53.482;9.862;2024-01-11T03:18:09;53.00;42.50;20.50
23240;PMS7003;11789;53.482;9.862;2024-01-11T03:20:34;52.50;40.75;14.00
23240;PMS7003;11789;53.482;9.862;2024-01-11T03:23:00;48.50;42.00;20.00
23240;PMS7003;11789;53.482;9.862;2024-01-11T03:25:25;52.25;41.25;15.25
23240;PMS7003;11789;53.482;9.862;2024-01-11T03:27:50;48.00;42.00;17.50
23240;PMS7003;11789;53.482;9.862;2024-01-11T03:30:16;49.25;41.00;19.25
23240;PMS7003;11789;53.482;9.862;2024-01-11T03:32:41;49.00;42.25;17.75
23240;PMS7003;11789;53.482;9.862;2024-01-11T03:35:07;61.50;42.75;18.25
23240;PMS7003;11789;53.482;9.862;2024-01-11T03:37:33;55.50;43.00;20.75
23240;PMS7003;11789;53.482;9.862;2024-01-11T03:40:00;53.75;38.25;20.25
23240;PMS7003;11789;53.482;9.862;2024-01-11T03:42:25;48.50;39.00;22.75
23240;PMS7003;11789;53.482;9.862;2024-01-11T03:44:51;50.00;38.75;18.25
23240;PMS7003;11789;53.482;9.862;2024-01-11T03:47:16;52.00;43.50;17.50
23240;PMS7003;11789;53.482;9.862;2024-01-11T03:49:42;50.00;42.00;18.50
23240;PMS7003;11789;53.482;9.862;2024-01-11T03:52:07;53.00;44.25;20.00
23240;PMS7003;11789;53.482;9.862;2024-01-11T03:54:33;50.00;38.00;17.00
23240;PMS7003;11789;53.482;9.862;2024-01-11T03:56:58;51.00;41.00;17.75
23240;PMS7003;11789;53.482;9.862;2024-01-11T03:59:24;62.75;41.75;21.75
23240;PMS7003;11789;53.482;9.862;2024-01-11T04:01:49;45.25;42.25;18.75
23240;PMS7003;11789;53.482;9.862;2024-01-11T04:04:15;57.25;45.50;19.00
23240;PMS7003;11789;53.482;9.862;2024-01-11T04:06:40;50.50;45.25;19.75
23240;PMS7003;11789;53.482;9.862;2024-01-11T04:09:06;67.00;51.75;24.50
23240;PMS7003;11789;53.482;9.862;2024-01-11T04:11:31;60.25;46.50;19.25
23240;PMS7003;11789;53.482;9.862;2024-01-11T04:13:57;69.75;50.50;22.75
23240;PMS7003;11789;53.482;9.862;2024-01-11T04:16:22;50.25;44.50;15.25
23240;PMS7003;11789;53.482;9.862;2024-01-11T04:18:48;61.50;47.75;19.25
23240;PMS7003;11789;53.482;9.862;2024-01-11T04:21:23;59.00;44.50;18.75
23240;PMS7003;11789;53.482;9.862;2024-01-11T04:23:49;56.75;42.25;19.25
23240;PMS7003;11789;53.482;9.862;2024-01-11T04:26:16;60.00;41.50;18.75
23240;PMS7003;11789;53.482;9.862;2024-01-11T04:28:44;51.75;44.00;21.00
23240;PMS7003;11789;53.482;9.862;2024-01-11T04:31:11;63.75;47.25;21.00
23240;PMS7003;11789;53.482;9.862;2024-01-11T04:33:39;56.25;43.00;21.00
23240;PMS7003;11789;53.482;9.862;2024-01-11T04:36:05;48.00;40.50;16.50
23240;PMS7003;11789;53.482;9.862;2024-01-11T04:38:31;56.00;41.75;16.00
23240;PMS7003;11789;53.482;9.862;2024-01-11T04:40:56;62.00;48.00;18.75
23240;PMS7003;11789;53.482;9.862;2024-01-11T04:43:22;52.50;45.25;21.25
23240;PMS7003;11789;53.482;9.862;2024-01-11T04:45:47;58.25;45.50;23.50
23240;PMS7003;11789;53.482;9.862;2024-01-11T04:48:13;58.25;47.00;23.75
23240;PMS7003;11789;53.482;9.862;2024-01-11T04:50:38;68.50;48.00;22.25
23240;PMS7003;11789;53.482;9.862;2024-01-11T04:53:04;54.25;46.50;24.50
23240;PMS7003;11789;53.482;9.862;2024-01-11T04:55:29;62.25;46.00;22.75
23240;PMS7003;11789;53.482;9.862;2024-01-11T04:57:55;66.50;50.25;21.00
23240;PMS7003;11789;53.482;9.862;2024-01-11T05:00:20;55.25;45.75;22.00
23240;PMS7003;11789;53.482;9.862;2024-01-11T05:02:45;68.50;48.00;21.50
23240;PMS7003;11789;53.482;9.862;2024-01-11T05:05:11;67.75;50.00;24.75
23240;PMS7003;11789;53.482;9.862;2024-01-11T05:07:36;62.50;49.50;24.50
23240;PMS7003;11789;53.482;9.862;2024-01-11T05:10:02;69.75;47.25;22.50
23240;PMS7003;11789;53.482;9.862;2024-01-11T05:12:28;68.25;52.25;21.75
23240;PMS7003;11789;53.482;9.862;2024-01-11T05:14:53;64.50;47.00;21.00
23240;PMS7003;11789;53.482;9.862;2024-01-11T05:17:18;50.75;45.00;21.25
23240;PMS7003;11789;53.482;9.862;2024-01-11T05:19:44;72.75;49.25;22.75
23240;PMS7003;11789;53.482;9.862;2024-01-11T05:22:09;60.00;41.00;19.50
23240;PMS7003;11789;53.482;9.862;2024-01-11T05:24:35;56.00;45.25;20.50
23240;PMS7003;11789;53.482;9.862;2024-01-11T05:27:00;57.75;44.50;19.50
23240;PMS7003;11789;53.482;9.862;2024-01-11T05:29:26;59.00;48.25;21.25
23240;PMS7003;11789;53.482;9.862;2024-01-11T05:31:51;66.50;46.50;21.25
23240;PMS7003;11789;53.482;9.862;2024-01-11T05:34:16;65.50;49.50;23.50
23240;PMS7003;11789;53.482;9.862;2024-01-11T05:36:42;50.00;44.00;19.25
23240;PMS7003;11789;53.482;9.862;2024-01-11T05:39:07;48.00;38.00;16.50
23240;PMS7003;11789;53.482;9.862;2024-01-11T05:41:33;43.33;33.33;14.00
23240;PMS7003;11789;53.482;9.862;2024-01-11T05:43:58;39.00;36.67;12.00
23240;PMS7003;11789;53.482;9.862;2024-01-11T05:46:24;34.00;25.67;11.00
23240;PMS7003;11789;53.482;9.862;2024-01-11T05:48:49;28.33;21.33;10.67
23240;PMS7003;11789;53.482;9.862;2024-01-11T05:51:15;32.00;24.67;11.00
23240;PMS7003;11789;53.482;9.862;2024-01-11T05:53:40;32.67;23.67;10.00
23240;PMS7003;11789;53.482;9.862;2024-01-11T05:56:09;27.67;22.00;9.00
23240;PMS7003;11789;53.482;9.862;2024-01-11T05:58:35;29.25;23.75;10.00
23240;PMS7003;11789;53.482;9.862;2024-01-11T06:01:04;34.67;22.00;9.00
23240;PMS7003;11789;53.482;9.862;2024-01-11T06:03:29;27.33;23.00;9.00
23240;PMS7003;11789;53.482;9.862;2024-01-11T06:05:59;37.75;27.50;13.75
23240;PMS7003;11789;53.482;9.862;2024-01-11T06:08:25;29.00;25.67;11.00
23240;PMS7003;11789;53.482;9.862;2024-01-11T06:10:50;33.33;30.00;11.00
23240;PMS7003;11789;53.482;9.862;2024-01-11T06:13:17;28.67;25.33;12.00
23240;PMS7003;11789;53.482;9.862;2024-01-11T06:15:43;31.67;23.00;9.67
23240;PMS7003;11789;53.482;9.862;2024-01-11T06:18:08;30.67;26.00;12.00
23240;PMS7003;11789;53.482;9.862;2024-01-11T06:20:34;37.33;26.33;12.00
23240;PMS7003;11789;53.482;9.862;2024-01-11T06:22:59;29.33;29.33;11.00
23240;PMS7003;11789;53.482;9.862;2024-01-11T06:25:25;31.00;22.00;11.00
23240;PMS7003;11789;53.482;9.862;2024-01-11T06:27:50;34.00;26.33;11.33
23240;PMS7003;11789;53.482;9.862;2024-01-11T06:30:16;33.33;25.67;12.00
23240;PMS7003;11789;53.482;9.862;2024-01-11T06:32:42;33.00;24.67;12.00
23240;PMS7003;11789;53.482;9.862;2024-01-11T06:35:08;32.33;24.67;11.00
23240;PMS7003;11789;53.482;9.862;2024-01-11T06:37:33;32.00;24.00;8.67
23240;PMS7003;11789;53.482;9.862;2024-01-11T06:39:59;29.67;20.33;9.00
23240;PMS7003;11789;53.482;9.862;2024-01-11T06:42:24;31.33;25.00;12.00
23240;PMS7003;11789;53.482;9.862;2024-01-11T06:44:49;32.33;23.67;11.33
23240;PMS7003;11789;53.482;9.862;2024-01-11T06:47:15;34.33;22.67;8.33
23240;PMS7003;11789;53.482;9.862;2024-01-11T06:49:41;30.00;23.00;9.00
23240;PMS7003;11789;53.482;9.862;2024-01-11T06:52:06;33.33;23.67;11.00
23240;PMS7003;11789;53.482;9.862;2024-01-11T06:54:31;27.00;24.33;11.33
23240;PMS7003;11789;53.482;9.862;2024-01-11T06:56:57;18.33;14.00;8.00
23240;PMS7003;11789;53.482;9.862;2024-01-11T06:59:23;31.67;21.00;8.00
23240;PMS7003;11789;53.482;9.862;2024-01-11T07:01:48;25.67;21.67;9.00
23240;PMS7003;11789;53.482;9.862;2024-01-11T07:04:14;16.00;16.00;8.00
23240;PMS7003;11789;53.482;9.862;2024-01-11T07:06:40;36.00;22.00;11.00
23240;PMS7003;11789;53.482;9.862;2024-01-11T07:09:05;26.67;22.33;11.67
23240;PMS7003;11789;53.482;9.862;2024-01-11T07:11:31;22.00;16.67;9.00
23240;PMS7003;11789;53.482;9.862;2024-01-11T07:13:57;26.67;23.33;11.00
23240;PMS7003;11789;53.482;9.862;2024-01-11T07:16:23;23.33;18.67;9.00
23240;PMS7003;11789;53.482;9.862;2024-01-11T07:18:48;17.33;15.33;7.33
23240;PMS7003;11789;53.482;9.862;2024-01-11T07:21:20;22.67;16.67;8.00
23240;PMS7003;11789;53.482;9.862;2024-01-11T07:23:48;26.00;21.00;10.33
23240;PMS7003;11789;53.482;9.862;2024-01-11T07:26:14;23.67;20.00;10.33
23240;PMS7003;11789;53.482;9.862;2024-01-11T07:28:39;22.33;16.67;9.33
23240;PMS7003;11789;53.482;9.862;2024-01-11T07:31:05;26.00;18.00;8.33
23240;PMS7003;11789;53.482;9.862;2024-01-11T07:33:30;16.00;14.33;6.00
23240;PMS7003;11789;53.482;9.862;2024-01-11T07:35:55;30.67;19.67;8.33
23240;PMS7003;11789;53.482;9.862;2024-01-11T07:38:21;25.67;19.00;8.00
23240;PMS7003;11789;53.482;9.862;2024-01-11T07:40:46;22.67;19.67;8.67
23240;PMS7003;11789;53.482;9.862;2024-01-11T07:43:12;23.00;20.33;8.67
23240;PMS7003;11789;53.482;9.862;2024-01-11T07:45:39;24.67;22.00;11.00
23240;PMS7003;11789;53.482;9.862;2024-01-11T07:48:04;32.67;23.00;11.00
23240;PMS7003;11789;53.482;9.862;2024-01-11T07:50:30;26.33;24.33;9.67
23240;PMS7003;11789;53.482;9.862;2024-01-11T07:52:56;31.33;28.00;12.00
23240;PMS7003;11789;53.482;9.862;2024-01-11T07:55:21;32.33;22.33;12.00
23240;PMS7003;11789;53.482;9.862;2024-01-11T07:57:49;33.33;25.00;11.00
23240;PMS7003;11789;53.482;9.862;2024-01-11T08:00:15;36.67;26.33;14.67
23240;PMS7003;11789;53.482;9.862;2024-01-11T08:02:40;24.67;18.67;11.00
23240;PMS7003;11789;53.482;9.862;2024-01-11T08:05:06;28.00;26.67;11.00
23240;PMS7003;11789;53.482;9.862;2024-01-11T08:07:32;22.67;19.00;9.67
23240;PMS7003;11789;53.482;9.862;2024-01-11T08:09:57;23.67;18.67;12.00
23240;PMS7003;11789;53.482;9.862;2024-01-11T08:12:23;20.67;15.00;7.67
23240;PMS7003;11789;53.482;9.862;2024-01-11T08:14:48;25.67;23.00;11.67
23240;PMS7003;11789;53.482;9.862;2024-01-11T08:17:14;30.67;22.67;10.33
23240;PMS7003;11789;53.482;9.862;2024-01-11T08:19:40;20.00;16.67;8.00
23240;PMS7003;11789;53.482;9.862;2024-01-11T08:22:06;15.33;13.33;6.33
23240;PMS7003;11789;53.482;9.862;2024-01-11T08:24:31;19.67;15.00;6.67
23240;PMS7003;11789;53.482;9.862;2024-01-11T08:26:57;20.00;15.00;6.00
23240;PMS7003;11789;53.482;9.862;2024-01-11T08:29:23;17.33;12.33;6.00
23240;PMS7003;11789;53.482;9.862;2024-01-11T08:31:48;20.00;18.33;8.00
23240;PMS7003;11789;53.482;9.862;2024-01-11T08:34:14;21.33;17.00;8.00
23240;PMS7003;11789;53.482;9.862;2024-01-11T08:36:40;18.00;15.33;7.33
23240;PMS7003;11789;53.482;9.862;2024-01-11T08:39:05;9.00;4.67;2.00
23240;PMS7003;11789;53.482;9.862;2024-01-11T08:41:32;11.00;9.00;5.00
23240;PMS7003;11789;53.482;9.862;2024-01-11T08:43:58;11.67;9.33;5.00
23240;PMS7003;11789;53.482;9.862;2024-01-11T08:46:24;16.33;8.00;5.00
23240;PMS7003;11789;53.482;9.862;2024-01-11T08:48:50;15.33;4.67;1.00
23240;PMS7003;11789;53.482;9.862;2024-01-11T08:51:16;17.00;11.67;5.00
23240;PMS7003;11789;53.482;9.862;2024-01-11T08:53:42;18.67;12.67;5.00
23240;PMS7003;11789;53.482;9.862;2024-01-11T08:56:07;19.00;12.00;5.33
23240;PMS7003;11789;53.482;9.862;2024-01-11T08:58:32;15.00;12.33;5.67
23240;PMS7003;11789;53.482;9.862;2024-01-11T09:00:58;21.00;17.67;8.67
23240;PMS7003;11789;53.482;9.862;2024-01-11T09:03:23;25.67;18.67;9.33
23240;PMS7003;11789;53.482;9.862;2024-01-11T09:05:50;23.67;19.67;9.33
23240;PMS7003;11789;53.482;9.862;2024-01-11T09:08:15;20.00;19.00;9.67
23240;PMS7003;11789;53.482;9.862;2024-01-11T09:10:40;23.33;19.33;9.67
23240;PMS7003;11789;53.482;9.862;2024-01-11T09:13:06;21.00;16.33;8.00
23240;PMS7003;11789;53.482;9.862;2024-01-11T09:15:32;24.00;20.33;10.00
23240;PMS7003;11789;53.482;9.862;2024-01-11T09:17:58;30.67;20.00;11.00
23240;PMS7003;11789;53.482;9.862;2024-01-11T09:20:28;27.67;23.33;11.67
23240;PMS7003;11789;53.482;9.862;2024-01-11T09:22:53;35.67;25.67;12.67
23240;PMS7003;11789;53.482;9.862;2024-01-11T09:25:18;31.67;25.00;14.33
23240;PMS7003;11789;53.482;9.862;2024-01-11T09:27:44;31.33;27.33;11.67
23240;PMS7003;11789;53.482;9.862;2024-01-11T09:30:09;34.33;28.33;11.67
23240;PMS7003;11789;53.482;9.862;2024-01-11T09:32:35;32.33;27.33;10.00
23240;PMS7003;11789;53.482;9.862;2024-01-11T09:35:02;40.67;31.00;15.00
23240;PMS7003;11789;53.482;9.862;2024-01-11T09:37:29;40.00;32.67;14.00
23240;PMS7003;11789;53.482;9.862;2024-01-11T09:39:56;41.67;28.33;12.33
23240;PMS7003;11789;53.482;9.862;2024-01-11T09:42:21;46.67;26.33;15.67
23240;PMS7003;11789;53.482;9.862;2024-01-11T09:44:47;47.33;35.33;16.00
23240;PMS7003;11789;53.482;9.862;2024-01-11T09:47:13;60.25;44.75;19.25
23240;PMS7003;11789;53.482;9.862;2024-01-11T09:49:44;48.33;37.33;16.00
23240;PMS7003;11789;53.482;9.862;2024-01-11T09:52:11;49.33;40.33;16.67
23240;PMS7003;11789;53.482;9.862;2024-01-11T09:54:39;48.75;39.00;15.75
23240;PMS7003;11789;53.482;9.862;2024-01-11T09:57:08;42.50;31.25;11.75
23240;PMS7003;11789;53.482;9.862;2024-01-11T09:59:34;55.00;29.00;8.33
23240;PMS7003;11789;53.482;9.862;2024-01-11T10:02:01;45.25;35.25;15.00
23240;PMS7003;11789;53.482;9.862;2024-01-11T10:04:28;46.25;38.25;18.25
23240;PMS7003;11789;53.482;9.862;2024-01-11T10:06:53;43.00;31.67;15.00
23240;PMS7003;11789;53.482;9.862;2024-01-11T10:09:20;47.67;39.33;19.00
23240;PMS7003;11789;53.482;9.862;2024-01-11T10:11:45;60.33;40.33;18.33
23240;PMS7003;11789;53.482;9.862;2024-01-11T10:14:14;53.67;39.33;15.33
23240;PMS7003;11789;53.482;9.862;2024-01-11T10:16:41;61.67;42.00;21.33
23240;PMS7003;11789;53.482;9.862;2024-01-11T10:19:07;45.00;36.67;17.33
23240;PMS7003;11789;53.482;9.862;2024-01-11T10:21:37;51.67;40.67;19.67
23240;PMS7003;11789;53.482;9.862;2024-01-11T10:24:06;51.00;39.33;19.33
23240;PMS7003;11789;53.482;9.862;2024-01-11T10:26:32;43.67;38.00;13.67
23240;PMS7003;11789;53.482;9.862;2024-01-11T10:28:59;50.33;39.67;17.00
23240;PMS7003;11789;53.482;9.862;2024-01-11T10:31:27;48.33;34.00;13.33
23240;PMS7003;11789;53.482;9.862;2024-01-11T10:33:54;52.50;39.75;21.75
23240;PMS7003;11789;53.482;9.862;2024-01-11T10:36:19;48.33;39.00;19.67
23240;PMS7003;11789;53.482;9.862;2024-01-11T10:38:44;47.67;39.00;18.67
23240;PMS7003;11789;53.482;9.862;2024-01-11T10:41:12;44.67;35.33;18.67
23240;PMS7003;11789;53.482;9.862;2024-01-11T10:43:42;61.67;42.67;19.67
23240;PMS7003;11789;53.482;9.862;2024-01-11T10:46:08;44.00;36.67;14.67
23240;PMS7003;11789;53.482;9.862;2024-01-11T10:48:38;44.33;32.33;18.33
23240;PMS7003;11789;53.482;9.862;2024-01-11T10:51:05;45.33;38.00;15.67
23240;PMS7003;11789;53.482;9.862;2024-01-11T10:53:41;48.00;40.67;20.00
23240;PMS7003;11789;53.482;9.862;2024-01-11T10:56:10;51.33;38.33;16.67
23240;PMS7003;11789;53.482;9.862;2024-01-11T10:58:41;50.67;40.33;16.67
23240;PMS7003;11789;53.482;9.862;2024-01-11T11:01:11;48.67;40.00;18.33
23240;PMS7003;11789;53.482;9.862;2024-01-11T11:03:38;40.33;36.33;16.00
23240;PMS7003;11789;53.482;9.862;2024-01-11T11:06:04;68.50;49.00;26.50
23240;PMS7003;11789;53.482;9.862;2024-01-11T11:08:31;58.67;43.00;21.33
23240;PMS7003;11789;53.482;9.862;2024-01-11T11:10:57;54.00;43.00;19.67
23240;PMS7003;11789;53.482;9.862;2024-01-11T11:13:25;65.50;50.50;26.25
23240;PMS7003;11789;53.482;9.862;2024-01-11T11:15:51;55.33;42.00;20.00
23240;PMS7003;11789;53.482;9.862;2024-01-11T11:18:18;42.67;35.33;14.67
23240;PMS7003;11789;53.482;9.862;2024-01-11T11:20:45;53.00;40.00;20.00
23240;PMS7003;11789;53.482;9.862;2024-01-11T11:23:11;52.67;43.00;20.33
23240;PMS7003;11789;53.482;9.862;2024-01-11T11:25:39;54.33;38.33;18.00
23240;PMS7003;11789;53.482;9.862;2024-01-11T11:28:06;53.00;40.33;17.67
23240;PMS7003;11789;53.482;9.862;2024-01-11T11:30:33;51.33;40.67;17.00
23240;PMS7003;11789;53.482;9.862;2024-01-11T11:35:46;51.00;42.00;20.67
23240;PMS7003;11789;53.482;9.862;2024-01-11T11:38:18;58.67;40.00;21.00
23240;PMS7003;11789;53.482;9.862;2024-01-11T11:40:47;46.00;40.67;19.67
23240;PMS7003;11789;53.482;9.862;2024-01-11T11:43:17;55.00;40.00;20.67
23240;PMS7003;11789;53.482;9.862;2024-01-11T11:45:43;52.33;39.33;17.33
23240;PMS7003;11789;53.482;9.862;2024-01-11T11:51:11;48.67;40.00;19.67
23240;PMS7003;11789;53.482;9.862;2024-01-11T11:53:39;60.67;42.67;21.00
23240;PMS7003;11789;53.482;9.862;2024-01-11T11:56:06;48.33;40.00;19.00
23240;PMS7003;11789;53.482;9.862;2024-01-11T11:58:33;54.33;40.67;20.00
23240;PMS7003;11789;53.482;9.862;2024-01-11T12:00:59;56.00;42.33;19.33
23240;PMS7003;11789;53.482;9.862;2024-01-11T12:03:30;59.33;46.33;20.67
23240;PMS7003;11789;53.482;9.862;2024-01-11T12:05:57;58.33;45.33;21.00
23240;PMS7003;11789;53.482;9.862;2024-01-11T12:08:23;52.00;41.67;19.33
23240;PMS7003;11789;53.482;9.862;2024-01-11T12:10:49;35.00;32.33;15.33
23240;PMS7003;11789;53.482;9.862;2024-01-11T12:13:16;42.33;39.33;16.67
23240;PMS7003;11789;53.482;9.862;2024-01-11T12:15:41;66.33;43.33;19.33
23240;PMS7003;11789;53.482;9.862;2024-01-11T12:18:07;51.00;42.33;19.00
23240;PMS7003;11789;53.482;9.862;2024-01-11T12:20:32;47.67;39.67;21.00
23240;PMS7003;11789;53.482;9.862;2024-01-11T12:22:58;51.33;35.67;18.00
23240;PMS7003;11789;53.482;9.862;2024-01-11T12:25:24;46.67;38.33;21.00
23240;PMS7003;11789;53.482;9.862;2024-01-11T12:27:50;45.67;39.67;20.67
23240;PMS7003;11789;53.482;9.862;2024-01-11T12:30:17;46.00;37.67;18.33
23240;PMS7003;11789;53.482;9.862;2024-01-11T12:32:43;48.67;40.67;17.33
23240;PMS7003;11789;53.482;9.862;2024-01-11T12:35:09;57.33;43.00;22.33
23240;PMS7003;11789;53.482;9.862;2024-01-11T12:37:35;55.00;40.33;19.33
23240;PMS7003;11789;53.482;9.862;2024-01-11T12:40:00;57.67;45.00;22.00
23240;PMS7003;11789;53.482;9.862;2024-01-11T12:42:26;51.00;41.33;19.33
23240;PMS7003;11789;53.482;9.862;2024-01-11T12:44:53;57.67;41.00;21.33
23240;PMS7003;11789;53.482;9.862;2024-01-11T12:47:18;61.00;43.00;21.33
23240;PMS7003;11789;53.482;9.862;2024-01-11T12:49:44;60.00;43.67;18.00
23240;PMS7003;11789;53.482;9.862;2024-01-11T12:52:20;42.67;34.00;12.33
23240;PMS7003;11789;53.482;9.862;2024-01-11T12:54:45;55.67;42.33;19.33
23240;PMS7003;11789;53.482;9.862;2024-01-11T12:57:12;53.67;41.00;21.00
23240;PMS7003;11789;53.482;9.862;2024-01-11T12:59:42;52.00;41.00;19.00
23240;PMS7003;11789;53.482;9.862;2024-01-11T13:02:08;41.67;36.67;18.00
23240;PMS7003;11789;53.482;9.862;2024-01-11T13:04:37;51.00;39.33;19.00
23240;PMS7003;11789;53.482;9.862;2024-01-11T13:07:03;53.00;43.67;21.33
23240;PMS7003;11789;53.482;9.862;2024-01-11T13:09:29;49.33;41.00;19.33
23240;PMS7003;11789;53.482;9.862;2024-01-11T13:11:54;55.33;43.33;19.33
23240;PMS7003;11789;53.482;9.862;2024-01-11T13:14:20;50.33;40.67;19.00
23240;PMS7003;11789;53.482;9.862;2024-01-11T13:16:45;57.33;46.33;22.67
23240;PMS7003;11789;53.482;9.862;2024-01-11T13:19:11;59.00;45.00;25.67
23240;PMS7003;11789;53.482;9.862;2024-01-11T13:21:37;48.67;40.00;18.67
23240;PMS7003;11789;53.482;9.862;2024-01-11T13:24:03;53.33;42.00;20.67
23240;PMS7003;11789;53.482;9.862;2024-01-11T13:26:29;63.67;46.33;22.00
23240;PMS7003;11789;53.482;9.862;2024-01-11T13:28:54;59.33;41.67;20.67
23240;PMS7003;11789;53.482;9.862;2024-01-11T13:31:20;52.00;42.00;23.00
23240;PMS7003;11789;53.482;9.862;2024-01-11T13:33:46;62.33;43.00;20.67
23240;PMS7003;11789;53.482;9.862;2024-01-11T13:36:11;53.00;41.67;18.33
23240;PMS7003;11789;53.482;9.862;2024-01-11T13:38:37;52.67;41.33;20.33
23240;PMS7003;11789;53.482;9.862;2024-01-11T13:41:03;46.33;35.33;21.33
23240;PMS7003;11789;53.482;9.862;2024-01-11T13:43:30;53.00;40.33;20.00
23240;PMS7003;11789;53.482;9.862;2024-01-11T13:45:55;62.33;43.67;18.33
23240;PMS7003;11789;53.482;9.862;2024-01-11T13:48:21;50.67;41.00;22.00